Terminal Aerodrome Forecast
Issued by NWS

Home | Current Version | Previous Version | Graphics & Text | Print | Product List | Glossary On
Versions: 1 2 3 4 5 6 7 8 9 10 11 12 13 14 15 16 17 18
000
FTUS43 KICT 272323
TAFSLN
TAF
KSLN 272323Z 2800/2824 28017G23KT P6SM BKN050
     FM280200 28011KT P6SM SCT150
     FM281700 32006KT P6SM SCT120
     FM282200 04007KT P6SM BKN250=

USA.gov is the U.S. government's official web portal to all federal, state and local government web resources and services.